sensor_id;sensor_type;location;lat;lon;timestamp;temperature;humidity
52656;SHT85;35474;51.032;6.998;2023-07-16T00:00:34;21.20;70.30
52656;SHT85;35474;51.032;6.998;2023-07-16T00:03:01;21.14;70.59
52656;SHT85;35474;51.032;6.998;2023-07-16T00:05:28;21.14;70.65
52656;SHT85;35474;51.032;6.998;2023-07-16T00:07:55;21.03;70.93
52656;SHT85;35474;51.032;6.998;2023-07-16T00:10:21;20.97;71.36
52656;SHT85;35474;51.032;6.998;2023-07-16T00:12:48;21.00;71.32
52656;SHT85;35474;51.032;6.998;2023-07-16T00:15:14;20.99;71.40
52656;SHT85;35474;51.032;6.998;2023-07-16T00:17:41;21.02;71.27
52656;SHT85;35474;51.032;6.998;2023-07-16T00:20:07;20.96;71.31
52656;SHT85;35474;51.032;6.998;2023-07-16T00:22:35;21.06;70.76
52656;SHT85;35474;51.032;6.998;2023-07-16T00:25:01;20.92;70.88
52656;SHT85;35474;51.032;6.998;2023-07-16T00:27:29;20.92;70.65
52656;SHT85;35474;51.032;6.998;2023-07-16T00:29:55;20.90;70.64
52656;SHT85;35474;51.032;6.998;2023-07-16T00:32:22;20.80;70.62
52656;SHT85;35474;51.032;6.998;2023-07-16T00:34:48;20.76;70.80
52656;SHT85;35474;51.032;6.998;2023-07-16T00:37:15;20.71;70.85
52656;SHT85;35474;51.032;6.998;2023-07-16T00:39:41;20.61;71.26
52656;SHT85;35474;51.032;6.998;2023-07-16T00:42:07;20.55;71.35
52656;SHT85;35474;51.032;6.998;2023-07-16T00:44:34;20.52;71.42
52656;SHT85;35474;51.032;6.998;2023-07-16T00:47:01;20.52;71.06
52656;SHT85;35474;51.032;6.998;2023-07-16T00:49:28;20.52;71.12
52656;SHT85;35474;51.032;6.998;2023-07-16T00:51:55;20.48;71.28
52656;SHT85;35474;51.032;6.998;2023-07-16T00:54:22;20.48;71.23
52656;SHT85;35474;51.032;6.998;2023-07-16T00:56:48;20.36;71.51
52656;SHT85;35474;51.032;6.998;2023-07-16T00:59:15;20.32;71.60
52656;SHT85;35474;51.032;6.998;2023-07-16T01:01:42;20.26;71.92
52656;SHT85;35474;51.032;6.998;2023-07-16T01:04:09;20.21;72.15
52656;SHT85;35474;51.032;6.998;2023-07-16T01:06:39;20.20;72.04
52656;SHT85;35474;51.032;6.998;2023-07-16T01:09:12;20.17;72.22
52656;SHT85;35474;51.032;6.998;2023-07-16T01:11:44;20.14;72.54
52656;SHT85;35474;51.032;6.998;2023-07-16T01:14:12;20.11;72.35
52656;SHT85;35474;51.032;6.998;2023-07-16T01:16:40;20.15;72.22
52656;SHT85;35474;51.032;6.998;2023-07-16T01:19:07;20.15;72.34
52656;SHT85;35474;51.032;6.998;2023-07-16T01:21:37;20.03;72.68
52656;SHT85;35474;51.032;6.998;2023-07-16T01:31:55;19.90;72.28
52656;SHT85;35474;51.032;6.998;2023-07-16T01:34:24;19.93;71.89
52656;SHT85;35474;51.032;6.998;2023-07-16T01:36:54;19.85;71.78
52656;SHT85;35474;51.032;6.998;2023-07-16T01:39:21;19.95;71.51
52656;SHT85;35474;51.032;6.998;2023-07-16T01:41:48;19.94;71.26
52656;SHT85;35474;51.032;6.998;2023-07-16T01:44:14;19.88;71.13
52656;SHT85;35474;51.032;6.998;2023-07-16T01:46:41;19.93;70.97
52656;SHT85;35474;51.032;6.998;2023-07-16T01:49:07;19.93;70.86
52656;SHT85;35474;51.032;6.998;2023-07-16T01:51:34;19.88;70.39
52656;SHT85;35474;51.032;6.998;2023-07-16T01:54:01;19.88;70.34
52656;SHT85;35474;51.032;6.998;2023-07-16T01:56:27;19.88;70.19
52656;SHT85;35474;51.032;6.998;2023-07-16T01:58:54;19.84;70.27
52656;SHT85;35474;51.032;6.998;2023-07-16T02:01:20;19.84;70.17
52656;SHT85;35474;51.032;6.998;2023-07-16T02:03:48;19.74;70.76
52656;SHT85;35474;51.032;6.998;2023-07-16T02:06:14;19.83;70.44
52656;SHT85;35474;51.032;6.998;2023-07-16T02:08:42;19.74;70.71
52656;SHT85;35474;51.032;6.998;2023-07-16T02:11:08;19.70;70.95
52656;SHT85;35474;51.032;6.998;2023-07-16T02:13:35;19.69;70.64
52656;SHT85;35474;51.032;6.998;2023-07-16T02:16:02;19.66;70.70
52656;SHT85;35474;51.032;6.998;2023-07-16T02:18:28;19.64;70.81
52656;SHT85;35474;51.032;6.998;2023-07-16T02:20:55;19.60;70.85
52656;SHT85;35474;51.032;6.998;2023-07-16T02:23:21;19.60;70.92
52656;SHT85;35474;51.032;6.998;2023-07-16T02:25:48;19.63;71.10
52656;SHT85;35474;51.032;6.998;2023-07-16T02:28:14;19.50;71.42
52656;SHT85;35474;51.032;6.998;2023-07-16T02:30:41;19.53;71.15
52656;SHT85;35474;51.032;6.998;2023-07-16T02:33:08;19.49;71.11
52656;SHT85;35474;51.032;6.998;2023-07-16T02:35:34;19.39;71.60
52656;SHT85;35474;51.032;6.998;2023-07-16T02:38:01;19.41;71.21
52656;SHT85;35474;51.032;6.998;2023-07-16T02:40:27;19.36;71.25
52656;SHT85;35474;51.032;6.998;2023-07-16T02:42:54;19.38;70.96
52656;SHT85;35474;51.032;6.998;2023-07-16T02:45:20;19.32;70.78
52656;SHT85;35474;51.032;6.998;2023-07-16T02:47:47;19.31;70.57
52656;SHT85;35474;51.032;6.998;2023-07-16T02:50:13;19.29;70.13
52656;SHT85;35474;51.032;6.998;2023-07-16T02:52:40;19.34;69.43
52656;SHT85;35474;51.032;6.998;2023-07-16T02:55:07;19.47;68.31
52656;SHT85;35474;51.032;6.998;2023-07-16T02:57:33;19.50;68.06
52656;SHT85;35474;51.032;6.998;2023-07-16T03:00:00;19.39;68.19
52656;SHT85;35474;51.032;6.998;2023-07-16T03:02:27;19.34;68.44
52656;SHT85;35474;51.032;6.998;2023-07-16T03:04:53;19.12;69.12
52656;SHT85;35474;51.032;6.998;2023-07-16T03:07:20;19.05;69.18
52656;SHT85;35474;51.032;6.998;2023-07-16T03:09:47;19.08;69.03
52656;SHT85;35474;51.032;6.998;2023-07-16T03:12:13;19.02;68.83
52656;SHT85;35474;51.032;6.998;2023-07-16T03:14:40;19.02;68.46
52656;SHT85;35474;51.032;6.998;2023-07-16T03:17:06;18.99;68.51
52656;SHT85;35474;51.032;6.998;2023-07-16T03:19:33;18.89;68.76
52656;SHT85;35474;51.032;6.998;2023-07-16T03:21:59;18.85;68.99
52656;SHT85;35474;51.032;6.998;2023-07-16T03:24:26;18.85;68.87
52656;SHT85;35474;51.032;6.998;2023-07-16T03:26:53;18.89;68.23
52656;SHT85;35474;51.032;6.998;2023-07-16T03:29:37;18.78;68.57
52656;SHT85;35474;51.032;6.998;2023-07-16T03:32:04;18.92;67.67
52656;SHT85;35474;51.032;6.998;2023-07-16T03:34:32;18.83;67.91
52656;SHT85;35474;51.032;6.998;2023-07-16T03:36:58;18.80;67.97
52656;SHT85;35474;51.032;6.998;2023-07-16T03:39:25;18.81;67.97
52656;SHT85;35474;51.032;6.998;2023-07-16T03:41:51;18.80;68.20
52656;SHT85;35474;51.032;6.998;2023-07-16T03:44:18;18.77;68.26
52656;SHT85;35474;51.032;6.998;2023-07-16T03:46:44;18.80;68.46
52656;SHT85;35474;51.032;6.998;2023-07-16T03:49:11;18.75;68.50
52656;SHT85;35474;51.032;6.998;2023-07-16T03:51:38;18.74;68.40
52656;SHT85;35474;51.032;6.998;2023-07-16T03:54:04;18.78;68.19
52656;SHT85;35474;51.032;6.998;2023-07-16T03:56:31;18.78;68.19
52656;SHT85;35474;51.032;6.998;2023-07-16T03:58:57;18.77;68.27
52656;SHT85;35474;51.032;6.998;2023-07-16T04:01:24;18.74;67.87
52656;SHT85;35474;51.032;6.998;2023-07-16T04:03:51;18.84;67.22
52656;SHT85;35474;51.032;6.998;2023-07-16T04:06:17;18.81;67.22
52656;SHT85;35474;51.032;6.998;2023-07-16T04:08:44;18.84;67.23
52656;SHT85;35474;51.032;6.998;2023-07-16T04:11:10;18.71;67.69
52656;SHT85;35474;51.032;6.998;2023-07-16T04:13:37;18.75;67.52
52656;SHT85;35474;51.032;6.998;2023-07-16T04:16:04;18.80;67.01
52656;SHT85;35474;51.032;6.998;2023-07-16T04:18:31;18.77;66.70
52656;SHT85;35474;51.032;6.998;2023-07-16T04:20:57;18.78;66.75
52656;SHT85;35474;51.032;6.998;2023-07-16T04:23:24;18.68;67.31
52656;SHT85;35474;51.032;6.998;2023-07-16T04:25:51;18.75;66.88
52656;SHT85;35474;51.032;6.998;2023-07-16T04:28:19;18.71;67.38
52656;SHT85;35474;51.032;6.998;2023-07-16T04:30:46;18.64;67.66
52656;SHT85;35474;51.032;6.998;2023-07-16T04:33:12;18.67;67.47
52656;SHT85;35474;51.032;6.998;2023-07-16T04:35:39;18.68;67.62
52656;SHT85;35474;51.032;6.998;2023-07-16T04:38:05;18.73;67.05
52656;SHT85;35474;51.032;6.998;2023-07-16T04:40:34;18.71;67.53
52656;SHT85;35474;51.032;6.998;2023-07-16T04:43:00;18.61;68.03
52656;SHT85;35474;51.032;6.998;2023-07-16T04:45:27;18.68;68.21
52656;SHT85;35474;51.032;6.998;2023-07-16T04:47:53;18.64;68.66
52656;SHT85;35474;51.032;6.998;2023-07-16T04:50:20;18.74;68.98
52656;SHT85;35474;51.032;6.998;2023-07-16T04:52:46;18.78;69.13
52656;SHT85;35474;51.032;6.998;2023-07-16T04:55:13;18.91;69.10
52656;SHT85;35474;51.032;6.998;2023-07-16T04:57:39;18.85;69.34
52656;SHT85;35474;51.032;6.998;2023-07-16T05:00:06;18.89;69.18
52656;SHT85;35474;51.032;6.998;2023-07-16T05:02:34;18.91;69.23
52656;SHT85;35474;51.032;6.998;2023-07-16T05:05:00;18.91;69.25
52656;SHT85;35474;51.032;6.998;2023-07-16T05:07:27;18.92;69.11
52656;SHT85;35474;51.032;6.998;2023-07-16T05:09:54;18.94;69.09
52656;SHT85;35474;51.032;6.998;2023-07-16T05:12:20;18.92;68.23
52656;SHT85;35474;51.032;6.998;2023-07-16T05:14:47;18.97;67.81
52656;SHT85;35474;51.032;6.998;2023-07-16T05:17:14;18.98;67.77
52656;SHT85;35474;51.032;6.998;2023-07-16T05:19:41;18.97;67.88
52656;SHT85;35474;51.032;6.998;2023-07-16T05:22:08;19.01;67.72
52656;SHT85;35474;51.032;6.998;2023-07-16T05:24:35;19.04;67.29
52656;SHT85;35474;51.032;6.998;2023-07-16T05:27:01;19.08;65.88
52656;SHT85;35474;51.032;6.998;2023-07-16T05:29:28;19.14;66.14
52656;SHT85;35474;51.032;6.998;2023-07-16T05:31:55;19.06;66.65
52656;SHT85;35474;51.032;6.998;2023-07-16T05:34:21;19.11;66.59
52656;SHT85;35474;51.032;6.998;2023-07-16T05:36:48;19.14;66.49
52656;SHT85;35474;51.032;6.998;2023-07-16T05:39:15;19.15;65.60
52656;SHT85;35474;51.032;6.998;2023-07-16T05:41:41;19.11;64.99
52656;SHT85;35474;51.032;6.998;2023-07-16T05:44:09;19.18;65.16
52656;SHT85;35474;51.032;6.998;2023-07-16T05:46:36;19.15;64.55
52656;SHT85;35474;51.032;6.998;2023-07-16T05:49:03;19.09;64.23
52656;SHT85;35474;51.032;6.998;2023-07-16T05:51:29;19.08;64.95
52656;SHT85;35474;51.032;6.998;2023-07-16T05:53:56;19.16;64.44
52656;SHT85;35474;51.032;6.998;2023-07-16T05:56:23;19.22;64.34
52656;SHT85;35474;51.032;6.998;2023-07-16T05:58:49;19.23;63.27
52656;SHT85;35474;51.032;6.998;2023-07-16T06:01:16;19.36;63.15
52656;SHT85;35474;51.032;6.998;2023-07-16T06:03:42;19.32;63.22
52656;SHT85;35474;51.032;6.998;2023-07-16T06:06:09;19.28;63.01
52656;SHT85;35474;51.032;6.998;2023-07-16T06:08:35;19.19;63.63
52656;SHT85;35474;51.032;6.998;2023-07-16T06:11:02;19.18;62.57
52656;SHT85;35474;51.032;6.998;2023-07-16T06:13:30;19.31;63.00
52656;SHT85;35474;51.032;6.998;2023-07-16T06:15:56;19.34;62.30
52656;SHT85;35474;51.032;6.998;2023-07-16T06:18:23;19.32;62.00
52656;SHT85;35474;51.032;6.998;2023-07-16T06:20:50;19.41;61.67
52656;SHT85;35474;51.032;6.998;2023-07-16T06:23:18;19.46;61.73
52656;SHT85;35474;51.032;6.998;2023-07-16T06:25:45;19.43;61.58
52656;SHT85;35474;51.032;6.998;2023-07-16T06:28:13;19.47;61.13
52656;SHT85;35474;51.032;6.998;2023-07-16T06:32:34;19.43;60.83
52656;SHT85;35474;51.032;6.998;2023-07-16T06:35:01;19.57;60.64
52656;SHT85;35474;51.032;6.998;2023-07-16T06:37:27;19.69;60.55
52656;SHT85;35474;51.032;6.998;2023-07-16T06:39:54;19.50;60.43
52656;SHT85;35474;51.032;6.998;2023-07-16T06:42:20;19.69;59.83
52656;SHT85;35474;51.032;6.998;2023-07-16T06:44:48;19.69;58.72
52656;SHT85;35474;51.032;6.998;2023-07-16T06:47:14;19.87;58.81
52656;SHT85;35474;51.032;6.998;2023-07-16T06:49:41;19.63;58.90
52656;SHT85;35474;51.032;6.998;2023-07-16T06:52:08;19.55;58.61
52656;SHT85;35474;51.032;6.998;2023-07-16T06:54:44;19.60;58.91
52656;SHT85;35474;51.032;6.998;2023-07-16T06:57:10;19.67;59.02
52656;SHT85;35474;51.032;6.998;2023-07-16T06:59:37;19.71;58.28
52656;SHT85;35474;51.032;6.998;2023-07-16T07:02:04;19.80;58.48
52656;SHT85;35474;51.032;6.998;2023-07-16T07:04:31;19.88;57.86
52656;SHT85;35474;51.032;6.998;2023-07-16T07:06:57;19.90;56.88
52656;SHT85;35474;51.032;6.998;2023-07-16T07:09:24;19.84;56.45
52656;SHT85;35474;51.032;6.998;2023-07-16T07:11:50;19.77;56.60
52656;SHT85;35474;51.032;6.998;2023-07-16T07:14:17;19.77;55.97
52656;SHT85;35474;51.032;6.998;2023-07-16T07:16:43;20.00;56.46
52656;SHT85;35474;51.032;6.998;2023-07-16T07:19:10;19.97;55.84
52656;SHT85;35474;51.032;6.998;2023-07-16T07:21:36;20.07;56.10
52656;SHT85;35474;51.032;6.998;2023-07-16T07:24:03;20.08;55.08
52656;SHT85;35474;51.032;6.998;2023-07-16T07:26:29;20.00;54.97
52656;SHT85;35474;51.032;6.998;2023-07-16T07:28:56;20.01;55.21
52656;SHT85;35474;51.032;6.998;2023-07-16T07:31:22;20.21;55.05
52656;SHT85;35474;51.032;6.998;2023-07-16T07:33:49;19.94;54.63
52656;SHT85;35474;51.032;6.998;2023-07-16T07:36:16;20.08;54.42
52656;SHT85;35474;51.032;6.998;2023-07-16T07:38:43;19.97;54.11
52656;SHT85;35474;51.032;6.998;2023-07-16T07:41:09;19.80;55.18
52656;SHT85;35474;51.032;6.998;2023-07-16T07:43:36;20.11;54.70
52656;SHT85;35474;51.032;6.998;2023-07-16T07:46:02;19.93;54.25
52656;SHT85;35474;51.032;6.998;2023-07-16T07:48:29;20.17;54.71
52656;SHT85;35474;51.032;6.998;2023-07-16T07:50:55;20.26;53.93
52656;SHT85;35474;51.032;6.998;2023-07-16T07:53:22;20.25;53.40
52656;SHT85;35474;51.032;6.998;2023-07-16T07:55:48;20.29;53.50
52656;SHT85;35474;51.032;6.998;2023-07-16T07:58:15;20.21;53.23
52656;SHT85;35474;51.032;6.998;2023-07-16T08:00:41;20.42;52.51
52656;SHT85;35474;51.032;6.998;2023-07-16T08:03:08;20.72;52.59
52656;SHT85;35474;51.032;6.998;2023-07-16T08:05:34;20.79;52.44
52656;SHT85;35474;51.032;6.998;2023-07-16T08:08:01;20.65;52.49
52656;SHT85;35474;51.032;6.998;2023-07-16T08:10:28;20.68;52.72
52656;SHT85;35474;51.032;6.998;2023-07-16T08:12:54;20.83;52.35
52656;SHT85;35474;51.032;6.998;2023-07-16T08:15:21;20.80;51.98
52656;SHT85;35474;51.032;6.998;2023-07-16T08:17:47;21.11;51.46
52656;SHT85;35474;51.032;6.998;2023-07-16T08:20:14;21.13;50.61
52656;SHT85;35474;51.032;6.998;2023-07-16T08:22:41;21.78;49.56
52656;SHT85;35474;51.032;6.998;2023-07-16T08:25:08;21.85;49.20
52656;SHT85;35474;51.032;6.998;2023-07-16T08:27:35;22.53;47.82
52656;SHT85;35474;51.032;6.998;2023-07-16T08:30:01;22.44;47.03
52656;SHT85;35474;51.032;6.998;2023-07-16T08:32:28;22.56;46.85
52656;SHT85;35474;51.032;6.998;2023-07-16T08:34:55;21.40;49.18
52656;SHT85;35474;51.032;6.998;2023-07-16T08:37:21;21.88;48.45
52656;SHT85;35474;51.032;6.998;2023-07-16T08:39:51;22.51;47.23
52656;SHT85;35474;51.032;6.998;2023-07-16T08:42:19;22.84;46.72
52656;SHT85;35474;51.032;6.998;2023-07-16T08:44:50;23.35;45.94
52656;SHT85;35474;51.032;6.998;2023-07-16T08:47:17;23.58;44.20
52656;SHT85;35474;51.032;6.998;2023-07-16T08:49:50;22.39;46.54
52656;SHT85;35474;51.032;6.998;2023-07-16T08:52:21;22.47;46.95
52656;SHT85;35474;51.032;6.998;2023-07-16T08:54:48;22.23;45.97
52656;SHT85;35474;51.032;6.998;2023-07-16T08:57:14;22.56;45.96
52656;SHT85;35474;51.032;6.998;2023-07-16T08:59:42;22.08;46.29
52656;SHT85;35474;51.032;6.998;2023-07-16T09:02:10;22.35;45.14
52656;SHT85;35474;51.032;6.998;2023-07-16T09:04:38;22.71;44.04
52656;SHT85;35474;51.032;6.998;2023-07-16T09:07:04;22.13;45.23
52656;SHT85;35474;51.032;6.998;2023-07-16T09:09:31;23.07;43.87
52656;SHT85;35474;51.032;6.998;2023-07-16T09:11:57;23.42;43.35
52656;SHT85;35474;51.032;6.998;2023-07-16T09:14:24;22.84;44.30
52656;SHT85;35474;51.032;6.998;2023-07-16T09:16:51;23.31;43.75
52656;SHT85;35474;51.032;6.998;2023-07-16T09:19:18;23.42;43.19
52656;SHT85;35474;51.032;6.998;2023-07-16T09:21:46;23.70;42.69
52656;SHT85;35474;51.032;6.998;2023-07-16T09:24:16;23.02;44.27
52656;SHT85;35474;51.032;6.998;2023-07-16T09:26:55;22.20;45.88
52656;SHT85;35474;51.032;6.998;2023-07-16T09:29:24;22.61;45.02
52656;SHT85;35474;51.032;6.998;2023-07-16T09:31:55;22.99;44.10
52656;SHT85;35474;51.032;6.998;2023-07-16T09:34:23;23.61;42.99
52656;SHT85;35474;51.032;6.998;2023-07-16T09:36:53;23.36;43.38
52656;SHT85;35474;51.032;6.998;2023-07-16T09:39:19;23.77;43.71
52656;SHT85;35474;51.032;6.998;2023-07-16T09:41:49;23.14;44.47
52656;SHT85;35474;51.032;6.998;2023-07-16T09:44:16;23.12;44.89
52656;SHT85;35474;51.032;6.998;2023-07-16T09:46:43;23.55;44.40
52656;SHT85;35474;51.032;6.998;2023-07-16T09:49:11;23.77;42.66
52656;SHT85;35474;51.032;6.998;2023-07-16T09:51:38;22.91;45.25
52656;SHT85;35474;51.032;6.998;2023-07-16T09:54:05;23.16;45.18
52656;SHT85;35474;51.032;6.998;2023-07-16T09:56:51;22.90;46.14
52656;SHT85;35474;51.032;6.998;2023-07-16T09:59:23;22.63;47.01
52656;SHT85;35474;51.032;6.998;2023-07-16T10:01:51;23.14;45.88
52656;SHT85;35474;51.032;6.998;2023-07-16T10:04:19;23.22;45.22
52656;SHT85;35474;51.032;6.998;2023-07-16T10:06:48;23.73;44.21
52656;SHT85;35474;51.032;6.998;2023-07-16T10:09:40;23.24;44.93
52656;SHT85;35474;51.032;6.998;2023-07-16T10:14:45;23.36;44.81
52656;SHT85;35474;51.032;6.998;2023-07-16T10:17:14;24.04;43.37
52656;SHT85;35474;51.032;6.998;2023-07-16T10:19:46;24.24;43.12
52656;SHT85;35474;51.032;6.998;2023-07-16T10:22:13;24.21;43.75
52656;SHT85;35474;51.032;6.998;2023-07-16T10:24:41;23.55;45.11
52656;SHT85;35474;51.032;6.998;2023-07-16T10:27:07;23.77;44.39
52656;SHT85;35474;51.032;6.998;2023-07-16T10:29:34;23.53;44.73
52656;SHT85;35474;51.032;6.998;2023-07-16T10:32:02;23.16;45.39
52656;SHT85;35474;51.032;6.998;2023-07-16T10:34:34;23.14;45.37
52656;SHT85;35474;51.032;6.998;2023-07-16T10:37:02;23.84;44.06
52656;SHT85;35474;51.032;6.998;2023-07-16T10:39:30;23.31;44.65
52656;SHT85;35474;51.032;6.998;2023-07-16T10:41:56;23.21;44.37
52656;SHT85;35474;51.032;6.998;2023-07-16T10:44:23;23.28;44.12
52656;SHT85;35474;51.032;6.998;2023-07-16T10:46:50;23.10;44.33
52656;SHT85;35474;51.032;6.998;2023-07-16T10:49:26;23.76;43.84
52656;SHT85;35474;51.032;6.998;2023-07-16T10:51:54;23.41;43.63
52656;SHT85;35474;51.032;6.998;2023-07-16T10:54:20;23.35;44.14
52656;SHT85;35474;51.032;6.998;2023-07-16T10:56:48;23.21;44.99
52656;SHT85;35474;51.032;6.998;2023-07-16T10:59:15;23.15;44.46
52656;SHT85;35474;51.032;6.998;2023-07-16T11:01:41;22.80;45.08
52656;SHT85;35474;51.032;6.998;2023-07-16T11:04:09;22.87;44.69
52656;SHT85;35474;51.032;6.998;2023-07-16T11:06:35;23.29;44.36
52656;SHT85;35474;51.032;6.998;2023-07-16T11:09:05;23.53;43.99
52656;SHT85;35474;51.032;6.998;2023-07-16T11:11:33;24.13;42.82
52656;SHT85;35474;51.032;6.998;2023-07-16T11:14:03;23.22;44.55
52656;SHT85;35474;51.032;6.998;2023-07-16T11:16:34;23.46;44.00
52656;SHT85;35474;51.032;6.998;2023-07-16T11:19:04;23.18;43.55
52656;SHT85;35474;51.032;6.998;2023-07-16T11:21:34;23.47;43.66
52656;SHT85;35474;51.032;6.998;2023-07-16T11:24:12;24.34;42.19
52656;SHT85;35474;51.032;6.998;2023-07-16T11:26:39;24.07;42.77
52656;SHT85;35474;51.032;6.998;2023-07-16T11:29:13;24.09;42.96
52656;SHT85;35474;51.032;6.998;2023-07-16T11:31:40;23.58;43.57
52656;SHT85;35474;51.032;6.998;2023-07-16T11:34:12;23.97;43.09
52656;SHT85;35474;51.032;6.998;2023-07-16T11:36:39;24.23;42.88
52656;SHT85;35474;51.032;6.998;2023-07-16T11:39:05;24.09;43.29
52656;SHT85;35474;51.032;6.998;2023-07-16T11:41:32;24.20;42.46
52656;SHT85;35474;51.032;6.998;2023-07-16T11:43:59;24.75;41.47
52656;SHT85;35474;51.032;6.998;2023-07-16T11:46:30;25.80;40.01
52656;SHT85;35474;51.032;6.998;2023-07-16T11:48:59;24.85;40.61
52656;SHT85;35474;51.032;6.998;2023-07-16T11:51:26;24.37;41.73
52656;SHT85;35474;51.032;6.998;2023-07-16T11:53:55;24.25;41.86
52656;SHT85;35474;51.032;6.998;2023-07-16T11:56:22;23.87;42.85
52656;SHT85;35474;51.032;6.998;2023-07-16T11:58:49;24.34;42.24
52656;SHT85;35474;51.032;6.998;2023-07-16T12:01:16;25.13;40.87
52656;SHT85;35474;51.032;6.998;2023-07-16T12:03:42;24.99;40.42
52656;SHT85;35474;51.032;6.998;2023-07-16T12:06:09;24.48;41.99
52656;SHT85;35474;51.032;6.998;2023-07-16T12:08:36;24.98;41.71
52656;SHT85;35474;51.032;6.998;2023-07-16T12:11:02;24.76;41.29
52656;SHT85;35474;51.032;6.998;2023-07-16T12:13:29;25.46;40.87
52656;SHT85;35474;51.032;6.998;2023-07-16T12:15:55;25.08;40.75
52656;SHT85;35474;51.032;6.998;2023-07-16T12:18:22;25.16;40.32
52656;SHT85;35474;51.032;6.998;2023-07-16T12:20:48;25.09;40.44
52656;SHT85;35474;51.032;6.998;2023-07-16T12:23:16;24.96;41.26
52656;SHT85;35474;51.032;6.998;2023-07-16T12:25:42;24.89;41.57
52656;SHT85;35474;51.032;6.998;2023-07-16T12:28:09;24.42;41.30
52656;SHT85;35474;51.032;6.998;2023-07-16T12:30:36;24.73;41.41
52656;SHT85;35474;51.032;6.998;2023-07-16T12:33:02;25.44;40.80
52656;SHT85;35474;51.032;6.998;2023-07-16T12:35:30;25.27;40.91
52656;SHT85;35474;51.032;6.998;2023-07-16T12:37:57;24.34;41.86
52656;SHT85;35474;51.032;6.998;2023-07-16T12:40:25;25.04;41.32
52656;SHT85;35474;51.032;6.998;2023-07-16T12:42:52;25.47;39.41
52656;SHT85;35474;51.032;6.998;2023-07-16T12:45:18;24.75;40.88
52656;SHT85;35474;51.032;6.998;2023-07-16T12:47:45;24.68;41.61
52656;SHT85;35474;51.032;6.998;2023-07-16T12:50:11;24.93;40.81
52656;SHT85;35474;51.032;6.998;2023-07-16T12:52:38;24.58;41.40
52656;SHT85;35474;51.032;6.998;2023-07-16T12:55:04;24.28;41.72
52656;SHT85;35474;51.032;6.998;2023-07-16T12:57:31;25.36;40.22
52656;SHT85;35474;51.032;6.998;2023-07-16T12:59:58;24.40;41.54
52656;SHT85;35474;51.032;6.998;2023-07-16T13:02:25;24.28;41.75
52656;SHT85;35474;51.032;6.998;2023-07-16T13:04:52;25.12;40.76
52656;SHT85;35474;51.032;6.998;2023-07-16T13:07:18;25.29;39.79
52656;SHT85;35474;51.032;6.998;2023-07-16T13:09:44;25.49;40.26
52656;SHT85;35474;51.032;6.998;2023-07-16T13:12:11;24.72;41.52
52656;SHT85;35474;51.032;6.998;2023-07-16T13:14:37;25.51;39.98
52656;SHT85;35474;51.032;6.998;2023-07-16T13:17:04;26.05;38.91
52656;SHT85;35474;51.032;6.998;2023-07-16T13:19:31;25.34;40.24
52656;SHT85;35474;51.032;6.998;2023-07-16T13:21:58;25.04;40.19
52656;SHT85;35474;51.032;6.998;2023-07-16T13:24:24;24.55;40.74
52656;SHT85;35474;51.032;6.998;2023-07-16T13:26:52;25.10;39.68
52656;SHT85;35474;51.032;6.998;2023-07-16T13:29:18;26.05;38.38
52656;SHT85;35474;51.032;6.998;2023-07-16T13:31:45;25.57;39.33
52656;SHT85;35474;51.032;6.998;2023-07-16T13:34:11;25.64;38.80
52656;SHT85;35474;51.032;6.998;2023-07-16T13:36:38;24.58;40.71
52656;SHT85;35474;51.032;6.998;2023-07-16T13:39:04;24.81;40.79
52656;SHT85;35474;51.032;6.998;2023-07-16T13:41:31;24.45;41.31
52656;SHT85;35474;51.032;6.998;2023-07-16T13:43:57;25.41;39.63
52656;SHT85;35474;51.032;6.998;2023-07-16T13:46:24;25.26;39.95
52656;SHT85;35474;51.032;6.998;2023-07-16T13:48:51;24.81;40.78
52656;SHT85;35474;51.032;6.998;2023-07-16T13:51:24;24.69;40.68
52656;SHT85;35474;51.032;6.998;2023-07-16T13:53:51;24.79;40.82
52656;SHT85;35474;51.032;6.998;2023-07-16T13:56:17;24.72;40.55
52656;SHT85;35474;51.032;6.998;2023-07-16T13:58:45;25.37;39.92
52656;SHT85;35474;51.032;6.998;2023-07-16T14:01:11;25.16;39.94
52656;SHT85;35474;51.032;6.998;2023-07-16T14:03:38;25.36;39.70
52656;SHT85;35474;51.032;6.998;2023-07-16T14:06:05;24.83;40.39
52656;SHT85;35474;51.032;6.998;2023-07-16T14:08:31;25.68;39.26
52656;SHT85;35474;51.032;6.998;2023-07-16T14:11:00;25.37;38.99
52656;SHT85;35474;51.032;6.998;2023-07-16T14:13:26;25.19;38.82
52656;SHT85;35474;51.032;6.998;2023-07-16T14:15:53;24.47;40.33
52656;SHT85;35474;51.032;6.998;2023-07-16T14:18:19;24.40;40.03
52656;SHT85;35474;51.032;6.998;2023-07-16T14:20:46;24.41;40.40
52656;SHT85;35474;51.032;6.998;2023-07-16T14:23:12;24.61;40.80
52656;SHT85;35474;51.032;6.998;2023-07-16T14:25:39;24.28;40.77
52656;SHT85;35474;51.032;6.998;2023-07-16T14:28:05;24.40;40.88
52656;SHT85;35474;51.032;6.998;2023-07-16T14:30:32;24.75;40.54
52656;SHT85;35474;51.032;6.998;2023-07-16T14:32:58;25.03;40.32
52656;SHT85;35474;51.032;6.998;2023-07-16T14:35:25;24.65;40.54
52656;SHT85;35474;51.032;6.998;2023-07-16T14:38:02;24.79;40.22
52656;SHT85;35474;51.032;6.998;2023-07-16T14:40:29;24.81;40.29
52656;SHT85;35474;51.032;6.998;2023-07-16T14:42:55;24.75;40.10
52656;SHT85;35474;51.032;6.998;2023-07-16T14:45:22;24.78;40.00
52656;SHT85;35474;51.032;6.998;2023-07-16T14:47:48;24.61;39.94
52656;SHT85;35474;51.032;6.998;2023-07-16T14:50:15;24.35;40.22
52656;SHT85;35474;51.032;6.998;2023-07-16T14:52:41;24.58;40.18
52656;SHT85;35474;51.032;6.998;2023-07-16T14:55:08;24.58;40.72
52656;SHT85;35474;51.032;6.998;2023-07-16T14:57:35;24.47;40.75
52656;SHT85;35474;51.032;6.998;2023-07-16T15:00:02;24.42;40.53
52656;SHT85;35474;51.032;6.998;2023-07-16T15:02:31;24.53;40.09
52656;SHT85;35474;51.032;6.998;2023-07-16T15:04:57;24.58;40.42
52656;SHT85;35474;51.032;6.998;2023-07-16T15:07:24;24.40;40.71
52656;SHT85;35474;51.032;6.998;2023-07-16T15:09:51;24.44;40.46
52656;SHT85;35474;51.032;6.998;2023-07-16T15:12:18;24.45;40.66
52656;SHT85;35474;51.032;6.998;2023-07-16T15:14:44;24.24;41.19
52656;SHT85;35474;51.032;6.998;2023-07-16T15:17:10;24.44;41.00
52656;SHT85;35474;51.032;6.998;2023-07-16T15:19:37;24.35;40.99
52656;SHT85;35474;51.032;6.998;2023-07-16T15:22:05;24.69;40.73
52656;SHT85;35474;51.032;6.998;2023-07-16T15:24:35;24.60;40.64
52656;SHT85;35474;51.032;6.998;2023-07-16T15:27:02;24.92;40.23
52656;SHT85;35474;51.032;6.998;2023-07-16T15:29:30;24.99;39.98
52656;SHT85;35474;51.032;6.998;2023-07-16T15:31:57;25.18;39.75
52656;SHT85;35474;51.032;6.998;2023-07-16T15:34:27;25.23;39.83
52656;SHT85;35474;51.032;6.998;2023-07-16T15:36:54;24.98;39.99
52656;SHT85;35474;51.032;6.998;2023-07-16T15:39:20;24.96;40.23
52656;SHT85;35474;51.032;6.998;2023-07-16T15:41:47;24.60;40.51